createdAt,value
2022-12-03T00:01:16.275Z,5.23
2022-12-03T00:03:43.764Z,5.00
2022-12-03T00:06:10.871Z,4.43
2022-12-03T00:08:37.995Z,5.27
2022-12-03T00:11:05.439Z,5.37
2022-12-03T00:13:32.603Z,5.50
2022-12-03T00:15:59.574Z,4.50
2022-12-03T00:18:26.763Z,6.53
2022-12-03T00:20:53.740Z,4.47
2022-12-03T00:23:20.703Z,4.23
2022-12-03T00:25:47.949Z,5.40
2022-12-03T00:28:15.571Z,4.23
2022-12-03T00:30:42.633Z,4.60
2022-12-03T00:33:09.924Z,4.23
2022-12-03T00:35:37.061Z,4.30
2022-12-03T00:38:04.166Z,3.90
2022-12-03T00:40:31.536Z,5.10
2022-12-03T00:42:58.681Z,5.37
2022-12-03T00:45:25.823Z,3.87
2022-12-03T00:47:52.949Z,5.03
2022-12-03T00:50:19.958Z,4.90
2022-12-03T00:52:47.349Z,4.27
2022-12-03T00:55:14.764Z,4.60
2022-12-03T00:57:42.369Z,3.70
2022-12-03T01:00:11.379Z,5.07
2022-12-03T01:02:38.586Z,4.43
2022-12-03T01:05:06.900Z,4.80
2022-12-03T01:07:34.229Z,3.77
2022-12-03T01:10:01.333Z,3.87
2022-12-03T01:12:29.734Z,3.73
2022-12-03T01:14:56.828Z,3.83
2022-12-03T01:17:23.939Z,4.17
2022-12-03T01:19:52.742Z,3.97
2022-12-03T01:22:19.936Z,7.33
2022-12-03T01:24:47.533Z,5.47
2022-12-03T01:27:14.921Z,4.13
2022-12-03T01:29:42.053Z,4.63
2022-12-03T01:32:22.539Z,5.77
2022-12-03T01:34:52.361Z,5.17
2022-12-03T01:37:23.608Z,4.50
2022-12-03T01:39:51.827Z,4.40
2022-12-03T01:42:33.990Z,5.40
2022-12-03T01:45:01.980Z,5.87
2022-12-03T01:47:35.521Z,4.50
2022-12-03T01:50:21.076Z,4.63
2022-12-03T01:52:48.478Z,4.13
2022-12-03T01:55:20.118Z,4.97
2022-12-03T01:58:10.897Z,4.73
2022-12-03T02:00:37.978Z,3.47
2022-12-03T02:03:15.772Z,4.10
2022-12-03T02:05:43.360Z,4.23
2022-12-03T02:08:34.042Z,3.70
2022-12-03T02:11:26.427Z,2.97
2022-12-03T02:13:57.378Z,4.73
2022-12-03T02:16:25.018Z,4.47
2022-12-03T02:18:52.161Z,5.10
2022-12-03T02:21:48.169Z,3.37
2022-12-03T02:24:48.150Z,5.53
2022-12-03T02:27:15.194Z,5.27
2022-12-03T02:29:42.298Z,4.37
2022-12-03T02:32:09.578Z,3.67
2022-12-03T02:34:42.099Z,3.17
2022-12-03T02:37:14.479Z,4.70
2022-12-03T02:39:46.627Z,4.23
2022-12-03T02:42:32.149Z,4.90
2022-12-03T02:45:05.675Z,5.37
2022-12-03T02:47:36.960Z,3.43
2022-12-03T02:50:04.599Z,5.27
2022-12-03T02:52:32.108Z,4.00
2022-12-03T02:55:01.241Z,4.43
2022-12-03T02:57:28.256Z,4.17
2022-12-03T02:59:55.640Z,4.37
2022-12-03T03:02:23.121Z,6.50
2022-12-03T03:04:50.699Z,5.63
2022-12-03T03:07:18.008Z,5.80
2022-12-03T03:09:46.378Z,5.30
2022-12-03T03:12:13.420Z,4.40
2022-12-03T03:14:40.649Z,4.70
2022-12-03T03:17:07.763Z,6.20
2022-12-03T03:19:34.893Z,3.77
2022-12-03T03:22:01.901Z,3.47
2022-12-03T03:24:29.799Z,5.17
2022-12-03T03:26:56.890Z,5.27
2022-12-03T03:29:24.186Z,4.40
2022-12-03T03:31:51.519Z,3.67
2022-12-03T03:34:20.049Z,5.07
2022-12-03T03:36:47.228Z,5.27
2022-12-03T03:39:14.572Z,6.00
2022-12-03T03:41:44.471Z,5.50
2022-12-03T03:44:11.779Z,5.90
2022-12-03T03:46:40.078Z,4.10
2022-12-03T03:49:07.711Z,6.17
2022-12-03T03:51:37.002Z,6.03
2022-12-03T03:54:05.769Z,6.30
2022-12-03T03:56:34.467Z,5.07
2022-12-03T03:59:03.326Z,5.73
2022-12-03T04:01:31.379Z,6.00
2022-12-03T04:03:59.889Z,5.67
2022-12-03T04:06:28.026Z,6.87
2022-12-03T04:08:55.507Z,4.33
2022-12-03T04:11:42.181Z,7.30
2022-12-03T04:14:09.203Z,6.30
2022-12-03T04:16:36.589Z,7.13
2022-12-03T04:19:03.731Z,6.07
2022-12-03T04:21:49.389Z,5.47
2022-12-03T04:24:16.607Z,5.27
2022-12-03T04:27:03.096Z,4.00
2022-12-03T04:29:30.382Z,5.27
2022-12-03T04:32:15.773Z,6.63
2022-12-03T04:35:01.302Z,6.47
2022-12-03T04:37:28.419Z,6.17
2022-12-03T04:39:55.677Z,6.07
2022-12-03T04:42:22.950Z,6.80
2022-12-03T04:44:50.397Z,4.87
2022-12-03T04:47:22.288Z,6.33
2022-12-03T04:49:51.353Z,5.33
2022-12-03T04:52:20.208Z,8.77
2022-12-03T04:54:47.631Z,6.87
2022-12-03T04:57:14.628Z,6.57
2022-12-03T04:59:41.658Z,6.10
2022-12-03T05:02:09.047Z,7.27
2022-12-03T05:04:36.830Z,7.87
2022-12-03T05:07:03.890Z,5.20
2022-12-03T05:09:32.850Z,6.83
2022-12-03T05:12:00.578Z,7.80
2022-12-03T05:14:27.853Z,6.73
2022-12-03T05:16:54.965Z,8.27
2022-12-03T05:19:42.032Z,7.10
2022-12-03T05:22:12.025Z,6.13
2022-12-03T05:24:39.418Z,7.07
2022-12-03T05:27:06.491Z,6.73
2022-12-03T05:29:33.526Z,6.47
2022-12-03T05:32:00.648Z,8.40
2022-12-03T05:34:27.673Z,7.70
2022-12-03T05:36:54.840Z,7.57
2022-12-03T05:39:22.272Z,7.37
2022-12-03T05:42:07.765Z,6.27
2022-12-03T05:44:34.829Z,7.63
2022-12-03T05:47:01.836Z,5.37
2022-12-03T05:49:29.095Z,6.10
2022-12-03T05:51:58.693Z,6.53
2022-12-03T05:54:26.586Z,6.40
2022-12-03T05:56:53.803Z,8.03
2022-12-03T05:59:20.947Z,7.40
2022-12-03T06:01:47.942Z,5.90
2022-12-03T06:04:14.998Z,7.07
2022-12-03T06:06:41.978Z,6.23
2022-12-03T06:09:09.407Z,6.97
2022-12-03T06:11:37.420Z,5.70
2022-12-03T06:14:04.644Z,7.03
2022-12-03T06:16:32.060Z,8.20
2022-12-03T06:19:00.666Z,6.07
2022-12-03T06:21:28.764Z,10.40
2022-12-03T06:23:55.771Z,4.37
2022-12-03T06:26:23.165Z,5.73
2022-12-03T06:28:50.569Z,7.20
2022-12-03T06:31:17.665Z,6.67
2022-12-03T06:33:44.988Z,6.97
2022-12-03T06:36:12.058Z,5.33
2022-12-03T06:38:39.199Z,6.53
2022-12-03T06:41:06.554Z,6.77
2022-12-03T06:43:33.721Z,6.90
2022-12-03T06:46:00.970Z,5.60
2022-12-03T06:48:28.367Z,8.07
2022-12-03T06:50:55.540Z,6.33
2022-12-03T06:53:22.931Z,6.80
2022-12-03T06:55:50.319Z,7.70
2022-12-03T06:58:17.304Z,6.23
2022-12-03T07:00:44.328Z,7.07
2022-12-03T07:03:11.406Z,7.20
2022-12-03T07:05:38.602Z,5.67
2022-12-03T07:08:06.326Z,7.93
2022-12-03T07:10:33.629Z,7.37
2022-12-03T07:13:00.601Z,5.97
2022-12-03T07:15:27.695Z,6.20
2022-12-03T07:17:54.660Z,5.63
2022-12-03T07:20:21.974Z,6.40
2022-12-03T07:22:48.946Z,8.40
2022-12-03T07:25:22.641Z,8.10
2022-12-03T07:27:50.386Z,7.57
2022-12-03T07:30:17.636Z,7.27
2022-12-03T07:32:44.687Z,6.40
2022-12-03T07:35:11.728Z,6.20
2022-12-03T07:37:39.071Z,8.37
2022-12-03T07:40:06.982Z,7.07
2022-12-03T07:42:34.113Z,5.90
2022-12-03T07:45:01.063Z,7.47
2022-12-03T07:47:28.207Z,8.30
2022-12-03T07:49:55.199Z,5.93
2022-12-03T07:52:22.146Z,9.03
2022-12-03T07:54:49.403Z,8.27
2022-12-03T07:57:16.656Z,8.30
2022-12-03T07:59:43.579Z,5.40
2022-12-03T08:02:10.935Z,9.17
2022-12-03T08:04:38.128Z,6.87
2022-12-03T08:07:05.333Z,9.67
2022-12-03T08:09:32.322Z,9.40
2022-12-03T08:12:06.956Z,9.10
2022-12-03T08:14:34.676Z,7.07
2022-12-03T08:17:01.757Z,7.47
2022-12-03T08:19:28.830Z,9.57
2022-12-03T08:22:01.028Z,10.47
2022-12-03T08:24:30.758Z,6.77
2022-12-03T08:26:57.865Z,7.70
2022-12-03T08:29:25.372Z,9.23
2022-12-03T08:31:57.318Z,8.27
2022-12-03T08:34:27.900Z,7.10
2022-12-03T08:37:14.481Z,10.87
2022-12-03T08:39:46.029Z,7.67
2022-12-03T08:42:34.794Z,8.57
2022-12-03T08:45:30.482Z,9.40
2022-12-03T08:48:14.001Z,7.27
2022-12-03T08:50:43.885Z,7.70
2022-12-03T08:53:14.385Z,7.40
2022-12-03T08:56:03.784Z,8.90
2022-12-03T08:58:42.358Z,9.13
2022-12-03T09:01:12.619Z,10.07
2022-12-03T09:03:49.388Z,10.00
2022-12-03T09:06:16.859Z,10.73
2022-12-03T09:08:43.810Z,12.27
2022-12-03T09:11:11.343Z,9.83
2022-12-03T09:13:38.292Z,8.47
2022-12-03T09:16:06.040Z,10.70
2022-12-03T09:18:33.723Z,10.30
2022-12-03T09:21:01.087Z,10.07
2022-12-03T09:23:28.240Z,9.67
2022-12-03T09:25:55.828Z,7.33
2022-12-03T09:28:22.891Z,12.53
2022-12-03T09:30:50.115Z,10.33
2022-12-03T09:33:17.182Z,9.63
2022-12-03T09:35:44.398Z,9.50
2022-12-03T09:38:11.693Z,13.93
2022-12-03T09:40:41.915Z,10.47
2022-12-03T09:43:09.121Z,12.70
2022-12-03T09:45:36.261Z,10.53
2022-12-03T09:48:06.583Z,10.60
2022-12-03T09:50:33.805Z,11.60
2022-12-03T09:53:03.973Z,10.77
2022-12-03T09:55:32.222Z,12.20
2022-12-03T09:58:00.815Z,8.90
2022-12-03T10:00:30.416Z,8.50
2022-12-03T10:03:01.730Z,9.77
2022-12-03T10:05:29.597Z,10.80
2022-12-03T10:08:04.619Z,10.87
2022-12-03T10:10:34.986Z,9.17
2022-12-03T10:13:02.474Z,11.67
2022-12-03T10:15:30.294Z,9.93
2022-12-03T10:17:58.954Z,11.03
2022-12-03T10:20:26.868Z,11.00
2022-12-03T10:22:54.127Z,11.00
2022-12-03T10:25:23.168Z,14.73
2022-12-03T10:28:06.087Z,11.73
2022-12-03T10:30:33.224Z,9.40
2022-12-03T10:33:15.855Z,10.07
2022-12-03T10:35:45.850Z,11.53
2022-12-03T10:38:25.011Z,11.73
2022-12-03T10:40:52.158Z,11.97
2022-12-03T10:43:19.725Z,10.90
2022-12-03T10:45:52.208Z,13.50
2022-12-03T10:48:22.065Z,11.40
2022-12-03T10:51:13.666Z,10.47
2022-12-03T10:54:01.968Z,7.83
2022-12-03T10:56:29.559Z,10.20
2022-12-03T10:58:56.902Z,12.73
2022-12-03T11:01:26.538Z,11.73
2022-12-03T11:03:56.894Z,14.23
2022-12-03T11:06:24.294Z,12.63
2022-12-03T11:08:58.388Z,12.67
2022-12-03T11:11:30.661Z,12.13
2022-12-03T11:14:02.843Z,10.47
2022-12-03T11:16:40.007Z,11.73
2022-12-03T11:19:13.163Z,10.50
2022-12-03T11:22:05.283Z,12.97
2022-12-03T11:24:37.388Z,12.33
2022-12-03T11:27:04.811Z,8.97
2022-12-03T11:30:01.439Z,11.90
2022-12-03T11:32:38.058Z,10.07
2022-12-03T11:35:26.020Z,11.03
2022-12-03T11:37:53.265Z,10.27
2022-12-03T11:40:20.502Z,9.23
2022-12-03T11:42:49.179Z,13.27
2022-12-03T11:45:30.523Z,10.07
2022-12-03T11:48:03.220Z,9.13
2022-12-03T11:50:40.148Z,10.57
2022-12-03T11:53:20.762Z,10.57
2022-12-03T11:55:52.340Z,9.60
2022-12-03T11:58:27.458Z,9.27
2022-12-03T12:00:57.277Z,10.33
2022-12-03T12:03:27.854Z,12.37
2022-12-03T12:06:09.729Z,11.27
2022-12-03T12:08:57.133Z,16.87
2022-12-03T12:11:30.151Z,7.17
2022-12-03T12:13:58.574Z,9.13
2022-12-03T12:16:55.320Z,9.43
2022-12-03T12:19:31.827Z,11.90
2022-12-03T12:22:25.273Z,10.83
2022-12-03T12:24:57.065Z,10.07
2022-12-03T12:27:35.565Z,10.50
2022-12-03T12:30:13.075Z,11.40
2022-12-03T12:32:48.621Z,13.17
2022-12-03T12:35:15.651Z,10.70
2022-12-03T12:37:56.808Z,12.27
2022-12-03T12:40:29.493Z,10.07
2022-12-03T12:43:33.930Z,10.53
2022-12-03T12:46:38.615Z,9.73
2022-12-03T12:48:59.713Z,9.63
2022-12-03T12:51:27.237Z,10.53
2022-12-03T12:53:54.470Z,12.47
2022-12-03T12:56:30.363Z,12.27
2022-12-03T12:59:14.041Z,11.73
2022-12-03T13:01:43.545Z,10.33
2022-12-03T13:04:14.138Z,10.27
2022-12-03T13:06:42.176Z,13.90
2022-12-03T13:09:17.337Z,13.27
2022-12-03T13:11:47.143Z,11.60
2022-12-03T13:14:25.742Z,12.60
2022-12-03T13:16:55.377Z,11.27
2022-12-03T13:19:29.796Z,11.23
2022-12-03T13:22:17.353Z,13.70
2022-12-03T13:24:48.025Z,9.87
2022-12-03T13:27:18.420Z,12.30
2022-12-03T13:30:13.889Z,9.70
2022-12-03T13:32:42.704Z,15.03
2022-12-03T13:35:26.855Z,11.73
2022-12-03T13:37:54.103Z,10.13
2022-12-03T13:40:31.751Z,10.03
2022-12-03T13:42:59.706Z,11.83
2022-12-03T13:45:31.140Z,11.93
2022-12-03T13:48:01.763Z,14.50
2022-12-03T13:50:41.517Z,13.57
2022-12-03T13:53:11.413Z,10.90
2022-12-03T13:55:43.236Z,11.90
2022-12-03T13:58:10.385Z,11.93
2022-12-03T14:00:37.837Z,12.40
2022-12-03T14:03:07.877Z,11.17
2022-12-03T14:05:35.219Z,12.10
2022-12-03T14:08:03.060Z,12.30
2022-12-03T14:10:30.852Z,11.40
2022-12-03T14:12:58.309Z,13.20
2022-12-03T14:15:26.745Z,9.30
2022-12-03T14:17:54.108Z,11.30
2022-12-03T14:20:21.461Z,11.43
2022-12-03T14:22:48.723Z,12.30
2022-12-03T14:25:16.467Z,14.07
2022-12-03T14:27:43.730Z,15.03
2022-12-03T14:30:11.647Z,13.90
2022-12-03T14:32:38.836Z,12.57
2022-12-03T14:35:15.191Z,13.80
2022-12-03T14:37:42.358Z,13.00
2022-12-03T14:40:10.255Z,15.27
2022-12-03T14:42:37.670Z,13.10
2022-12-03T14:45:05.189Z,12.83
2022-12-03T14:47:32.378Z,12.47
2022-12-03T14:50:00.498Z,14.33
2022-12-03T14:52:27.751Z,13.97
2022-12-03T14:54:55.350Z,14.63
2022-12-03T14:57:22.691Z,16.40
2022-12-03T14:59:49.999Z,13.60
2022-12-03T15:02:17.355Z,15.40
2022-12-03T15:04:44.798Z,15.60
2022-12-03T15:07:11.957Z,12.27
2022-12-03T15:09:39.137Z,13.60
2022-12-03T15:12:06.811Z,12.53
2022-12-03T15:14:34.165Z,16.27
2022-12-03T15:17:01.608Z,14.87
2022-12-03T15:19:28.777Z,17.80
2022-12-03T15:21:55.941Z,14.07
2022-12-03T15:24:23.539Z,15.70
2022-12-03T15:26:53.680Z,14.57
2022-12-03T15:29:21.173Z,15.70
2022-12-03T15:31:51.344Z,20.87
2022-12-03T15:34:22.473Z,17.03
2022-12-03T15:36:50.306Z,15.23
2022-12-03T15:39:17.758Z,15.93
2022-12-03T15:41:45.031Z,19.73
2022-12-03T15:44:12.362Z,18.63
2022-12-03T15:46:39.631Z,14.17
2022-12-03T15:49:07.078Z,18.60
2022-12-03T15:51:34.326Z,15.87
2022-12-03T15:54:01.514Z,13.67
2022-12-03T15:56:29.069Z,15.53
2022-12-03T15:58:56.256Z,17.67
2022-12-03T16:01:23.564Z,15.67
2022-12-03T16:03:50.854Z,16.83
2022-12-03T16:06:19.901Z,15.60
2022-12-03T16:08:48.492Z,15.77
2022-12-03T16:11:16.060Z,16.57
2022-12-03T16:13:43.675Z,11.93
2022-12-03T16:16:10.846Z,15.80
2022-12-03T16:18:38.095Z,15.93
2022-12-03T16:21:05.478Z,12.77
2022-12-03T16:23:32.746Z,18.63
2022-12-03T16:26:00.363Z,14.90
2022-12-03T16:28:27.717Z,14.73
2022-12-03T16:30:54.987Z,14.47
2022-12-03T16:33:27.218Z,17.13
2022-12-03T16:35:55.297Z,18.17
2022-12-03T16:38:22.518Z,16.83
2022-12-03T16:40:50.106Z,16.60
2022-12-03T16:43:17.416Z,19.17
2022-12-03T16:46:20.299Z,17.13
2022-12-03T16:48:48.568Z,15.97
2022-12-03T16:51:16.763Z,14.70
2022-12-03T16:53:44.110Z,14.40
2022-12-03T16:56:11.877Z,15.53
2022-12-03T16:58:39.352Z,16.70
2022-12-03T17:01:07.407Z,17.97
2022-12-03T17:03:34.734Z,15.77
2022-12-03T17:06:02.697Z,18.70
2022-12-03T17:08:30.091Z,17.70
2022-12-03T17:10:57.930Z,15.90
2022-12-03T17:13:25.366Z,14.33
2022-12-03T17:15:52.568Z,15.87
2022-12-03T17:18:20.087Z,14.30
2022-12-03T17:20:47.364Z,18.73
2022-12-03T17:23:14.674Z,12.80
2022-12-03T17:25:42.321Z,12.97
2022-12-03T17:28:09.710Z,14.70
2022-12-03T17:30:37.649Z,13.67
2022-12-03T17:33:05.380Z,15.30
2022-12-03T17:35:32.608Z,14.03
2022-12-03T17:37:59.953Z,11.97
2022-12-03T17:40:27.629Z,18.37
2022-12-03T17:42:54.848Z,15.40
2022-12-03T17:45:22.829Z,15.07
2022-12-03T17:47:50.156Z,10.63
2022-12-03T17:50:17.533Z,14.90
2022-12-03T17:52:44.850Z,14.03
2022-12-03T17:55:19.861Z,14.03
2022-12-03T17:57:51.241Z,11.73
2022-12-03T18:00:19.072Z,16.73
2022-12-03T18:02:46.323Z,13.83
2022-12-03T18:05:14.400Z,14.27
2022-12-03T18:07:41.678Z,14.03
2022-12-03T18:10:09.437Z,14.47
2022-12-03T18:12:36.907Z,11.53
2022-12-03T18:15:04.463Z,15.13
2022-12-03T18:17:31.652Z,13.03
2022-12-03T18:19:59.032Z,17.17
2022-12-03T18:22:27.940Z,13.23
2022-12-03T18:24:55.839Z,15.57
2022-12-03T18:27:24.269Z,12.60
2022-12-03T18:29:52.970Z,13.07
2022-12-03T18:32:28.796Z,15.33
2022-12-03T18:34:57.178Z,16.87
2022-12-03T18:37:28.096Z,16.13
2022-12-03T18:39:57.575Z,16.83
2022-12-03T18:42:26.551Z,16.30
2022-12-03T18:44:56.473Z,18.13
2022-12-03T18:47:27.085Z,15.20
2022-12-03T18:49:55.501Z,16.87
2022-12-03T18:52:25.264Z,14.27
2022-12-03T18:54:55.507Z,12.37
2022-12-03T18:57:22.699Z,12.40
2022-12-03T18:59:50.025Z,14.53
2022-12-03T19:03:00.700Z,12.33
2022-12-03T19:05:07.742Z,17.90
2022-12-03T19:07:35.260Z,14.33
2022-12-03T19:10:02.742Z,14.80
2022-12-03T19:12:31.322Z,17.90
2022-12-03T19:14:58.575Z,17.57
2022-12-03T19:17:27.458Z,12.53
2022-12-03T19:19:55.482Z,18.00
2022-12-03T19:22:23.827Z,18.50
2022-12-03T19:24:51.331Z,16.03
2022-12-03T19:27:19.401Z,14.60
2022-12-03T19:29:49.851Z,15.13
2022-12-03T19:32:17.137Z,16.17
2022-12-03T19:34:44.344Z,14.70
2022-12-03T19:37:11.611Z,13.17
2022-12-03T19:39:39.200Z,13.93
2022-12-03T19:42:06.423Z,13.83
2022-12-03T19:44:33.912Z,15.73
2022-12-03T19:47:01.103Z,21.00
2022-12-03T19:49:28.338Z,14.77
2022-12-03T19:51:55.783Z,14.17
2022-12-03T19:54:24.254Z,15.83
2022-12-03T19:56:51.528Z,14.60
2022-12-03T19:59:18.863Z,14.80
2022-12-03T20:01:46.447Z,15.37
2022-12-03T20:04:13.858Z,13.50
2022-12-03T20:06:41.381Z,14.60
2022-12-03T20:09:12.221Z,16.17
2022-12-03T20:11:41.880Z,12.07
2022-12-03T20:14:12.708Z,13.47
2022-12-03T20:16:40.040Z,11.93
2022-12-03T20:19:08.652Z,14.83
2022-12-03T20:21:37.645Z,15.00
2022-12-03T20:24:05.669Z,13.17
2022-12-03T20:26:33.548Z,13.90
2022-12-03T20:29:01.053Z,14.03
2022-12-03T20:31:30.615Z,14.43
2022-12-03T20:34:01.049Z,14.37
2022-12-03T20:36:30.327Z,13.57
2022-12-03T20:39:01.008Z,15.53
2022-12-03T20:41:29.391Z,12.73
2022-12-03T20:43:56.965Z,12.70
2022-12-03T20:46:27.509Z,15.03
2022-12-03T20:48:55.369Z,12.83
2022-12-03T20:51:27.847Z,14.23
2022-12-03T20:53:55.071Z,18.57
2022-12-03T20:56:28.443Z,21.43
2022-12-03T20:58:55.633Z,13.40
2022-12-03T21:01:26.621Z,12.17
2022-12-03T21:03:55.729Z,14.67
2022-12-03T21:06:25.920Z,14.13
2022-12-03T21:08:54.549Z,14.60
2022-12-03T21:11:24.685Z,15.63
2022-12-03T21:13:54.052Z,14.27
2022-12-03T21:16:45.543Z,10.17
2022-12-03T21:19:11.492Z,11.03
2022-12-03T21:21:38.954Z,13.30
2022-12-03T21:24:06.544Z,12.00
2022-12-03T21:26:34.158Z,15.50
2022-12-03T21:29:01.365Z,13.23
2022-12-03T21:31:30.585Z,14.10
2022-12-03T21:33:58.519Z,13.00
2022-12-03T21:36:26.324Z,13.53
2022-12-03T21:38:53.786Z,12.47
2022-12-03T21:41:21.319Z,13.37
2022-12-03T21:43:48.613Z,12.60
2022-12-03T21:47:10.409Z,12.30
2022-12-03T21:49:04.602Z,13.17
2022-12-03T21:51:31.814Z,15.30
2022-12-03T21:53:59.034Z,18.23
2022-12-03T21:56:26.554Z,14.20
2022-12-03T21:58:53.753Z,14.23
2022-12-03T22:01:23.197Z,15.43
2022-12-03T22:03:53.290Z,12.50
2022-12-03T22:06:20.833Z,13.53
2022-12-03T22:08:51.304Z,14.87
2022-12-03T22:11:22.030Z,14.70
2022-12-03T22:13:49.735Z,17.20
2022-12-03T22:16:20.294Z,13.77
2022-12-03T22:18:47.932Z,16.50
2022-12-03T22:21:18.562Z,14.03
2022-12-03T22:23:46.219Z,13.27
2022-12-03T22:26:17.341Z,15.53
2022-12-03T22:28:47.928Z,13.87
2022-12-03T22:31:17.899Z,14.50
2022-12-03T22:33:48.554Z,19.37
2022-12-03T22:36:21.039Z,11.00
2022-12-03T22:38:50.105Z,14.27
2022-12-03T22:41:18.568Z,13.33
2022-12-03T22:43:47.711Z,14.13
2022-12-03T22:46:15.558Z,17.70
2022-12-03T22:48:44.831Z,13.57
2022-12-03T22:51:23.485Z,15.40
2022-12-03T22:53:55.830Z,16.27
2022-12-03T22:56:24.003Z,13.70
2022-12-03T22:58:51.518Z,12.77
2022-12-03T23:01:25.897Z,16.07
2022-12-03T23:03:53.083Z,15.90
2022-12-03T23:06:21.192Z,15.63
2022-12-03T23:08:49.232Z,14.43
2022-12-03T23:11:17.948Z,15.23
2022-12-03T23:13:45.840Z,15.90
2022-12-03T23:16:16.952Z,14.60
2022-12-03T23:18:44.287Z,14.27
2022-12-03T23:21:34.421Z,13.30
2022-12-03T23:24:04.541Z,13.27
2022-12-03T23:26:39.570Z,10.90
2022-12-03T23:29:06.761Z,11.73
2022-12-03T23:31:34.566Z,14.93
2022-12-03T23:34:02.408Z,14.83
2022-12-03T23:36:31.857Z,15.23
2022-12-03T23:38:59.107Z,14.30
2022-12-03T23:41:26.677Z,11.93
2022-12-03T23:43:54.158Z,13.03
2022-12-03T23:46:24.332Z,13.20
2022-12-03T23:48:52.005Z,13.03
2022-12-03T23:51:22.365Z,12.93
2022-12-03T23:53:50.090Z,14.10
2022-12-03T23:56:21.006Z,10.93
2022-12-03T23:58:48.766Z,9.83
